Terminal Aerodrome Forecast
Issued by NWS

Home | Current Version | Previous Version | Text Only | Print | Product List | Glossary On
Versions: 1 2 3 4 5 6 7 8 9 10 11 12 13 14 15 16 17 18 19 20 21
176
FTUS45 KABQ 231731
TAFROW
TAF
KROW 231731Z 2318/2418 20008KT P6SM SCT120
     FM232100 17011G20KT P6SM VCSH BKN090
      TEMPO 2321/2324 VRB20G30KT -SHRA BKN070
     FM240200 18012KT P6SM BKN090
     FM240800 20007KT P6SM SCT080=

USA.gov is the U.S. government's official web portal to all federal, state and local government web resources and services.